This is the latest recevied weather packets stored in our database for station/object WA1DLZ. If no packets are shown the sender has not sent any weather packets the latest 10 day(s).
| Time | Temp. | Humidity | Pressure | Rain* | Wind** | Luminosity | Snow |
|---|---|---|---|---|---|---|---|
| 1777083003 | 0.56° C | 78% | 1016.1 hPa | 0 mm | - | - | - |
| 1777082703 | 0.56° C | 77% | 1016.1 hPa | 0 mm | - | - | - |
| 1777082403 | 0.56° C | 76% | 1016.1 hPa | 0 mm | - | - | - |
| 1777077903 | 3.89° C | 62% | 1015.4 hPa | 0 mm | - | - | - |
| 1777077603 | 3.89° C | 63% | 1015.4 hPa | 0 mm | - | - | - |
| 1777077003 | 4.44° C | 61% | 1015.3 hPa | 0 mm | - | - | - |
| 1777072503 | 5.56° C | 57% | 1014.2 hPa | 0 mm | - | - | - |
| 1777072203 | 5.56° C | 56% | 1014.1 hPa | 0 mm | - | - | - |
| 1777071003 | 6.67° C | 54% | 1013.6 hPa | 0 mm | - | - | - |
| 1777065303 | 8.89° C | 50% | 1011.8 hPa | 0 mm | - | - | - |
| 1777058703 | 8.89° C | 48% | 1010.3 hPa | 0 mm | - | - | - |
| 1777057203 | 10° C | 44% | 1009.8 hPa | 0 mm | - | - | - |
| 1777056303 | 8.89° C | 46% | 1010 hPa | 0 mm | - | - | - |
| 1777052403 | 8.89° C | 45% | 1009.9 hPa | 0 mm | - | - | - |
| 1777048803 | 9.44° C | 45% | 1009.8 hPa | 0 mm | - | - | - |
| 1777046103 | 7.78° C | 47% | 1009.8 hPa | 0 mm | - | - | - |
| 1777045803 | 7.78° C | 48% | 1009.7 hPa | 0 mm | - | - | - |
| 1777045204 | 7.78° C | 49% | 1009.6 hPa | 0 mm | - | - | - |
| 1777044903 | 7.22° C | 51% | 1009.6 hPa | 0 mm | - | - | - |
| 1777043704 | 6.67° C | 49% | 1009.7 hPa | 0 mm | - | - | - |
| 1777042803 | 7.22° C | 49% | 1009.7 hPa | 0 mm | - | - | - |
| 1777042204 | 7.22° C | 52% | 1009.7 hPa | 0 mm | - | - | - |
| 1777038304 | 7.22° C | 56% | 1009.8 hPa | 0 mm | - | - | - |
| 1777036203 | 5° C | 62% | 1010 hPa | 0 mm | - | - | - |
| 1777035604 | 5° C | 64% | 1010.2 hPa | 0 mm | - | - | - |
* Rain latest hour (hover to see other rain measurements)
** Current wind speed in m/s (hover to see current wind gust speed)